createdAt,value
2022-10-22T00:01:14.849Z,19.90
2022-10-22T00:03:43.125Z,16.60
2022-10-22T00:06:11.537Z,21.20
2022-10-22T00:08:40.029Z,20.70
2022-10-22T00:11:13.832Z,18.80
2022-10-22T00:13:42.634Z,19.70
2022-10-22T00:16:11.054Z,16.50
2022-10-22T00:18:39.819Z,18.10
2022-10-22T00:21:08.599Z,18.50
2022-10-22T00:23:36.928Z,16.30
2022-10-22T00:26:05.402Z,19.60
2022-10-22T00:28:33.810Z,19.50
2022-10-22T00:31:02.222Z,19.40
2022-10-22T00:33:31.529Z,18.70
2022-10-22T00:35:59.833Z,19.00
2022-10-22T00:38:28.126Z,19.20
2022-10-22T00:40:56.616Z,20.90
2022-10-22T00:43:25.342Z,19.80
2022-10-22T00:45:53.620Z,16.20
2022-10-22T00:48:26.164Z,16.20
2022-10-22T00:51:02.750Z,16.60
2022-10-22T00:53:47.858Z,16.40
2022-10-22T00:56:16.366Z,12.70
2022-10-22T00:58:49.288Z,19.30
2022-10-22T01:01:21.987Z,14.60
2022-10-22T01:03:50.755Z,16.60
2022-10-22T01:06:33.599Z,16.30
2022-10-22T01:09:30.015Z,14.80
2022-10-22T01:12:28.523Z,16.90
2022-10-22T01:15:14.924Z,15.40
2022-10-22T01:18:15.581Z,16.30
2022-10-22T01:21:04.138Z,19.20
2022-10-22T01:23:53.301Z,19.00
2022-10-22T01:26:34.401Z,17.90
2022-10-22T01:29:20.223Z,17.00
2022-10-22T01:32:01.529Z,20.40
2022-10-22T01:34:32.051Z,19.50
2022-10-22T01:37:01.673Z,16.90
2022-10-22T01:39:31.610Z,18.60
2022-10-22T01:42:00.339Z,16.90
2022-10-22T01:44:33.894Z,15.90
2022-10-22T01:47:15.901Z,17.80
2022-10-22T01:50:02.389Z,15.90
2022-10-22T01:52:52.342Z,18.50
2022-10-22T01:55:42.229Z,17.40
2022-10-22T01:58:19.975Z,17.30
2022-10-22T02:00:59.920Z,16.70
2022-10-22T02:03:45.038Z,18.80
2022-10-22T02:06:19.205Z,18.10
2022-10-22T02:08:49.696Z,16.70
2022-10-22T02:11:18.359Z,16.80
2022-10-22T02:13:51.323Z,19.20
2022-10-22T02:16:25.908Z,18.40
2022-10-22T02:18:58.346Z,18.20
2022-10-22T02:21:27.949Z,16.40
2022-10-22T02:23:56.636Z,16.40
2022-10-22T02:26:48.876Z,15.90
2022-10-22T02:29:30.773Z,15.20
2022-10-22T02:32:01.631Z,16.90
2022-10-22T02:34:32.311Z,16.90
2022-10-22T02:37:02.817Z,19.00
2022-10-22T02:39:32.611Z,19.60
2022-10-22T02:42:02.949Z,16.50
2022-10-22T02:44:31.269Z,17.00
2022-10-22T02:47:00.092Z,17.10
2022-10-22T02:49:28.582Z,14.90
2022-10-22T02:51:57.300Z,17.70
2022-10-22T02:54:25.581Z,17.40
2022-10-22T02:56:53.809Z,15.40
2022-10-22T02:59:22.102Z,18.50
2022-10-22T03:01:50.407Z,19.40
2022-10-22T03:04:18.672Z,15.70
2022-10-22T03:06:48.979Z,18.40
2022-10-22T03:09:21.254Z,16.60
2022-10-22T03:11:52.734Z,17.70
2022-10-22T03:14:21.121Z,16.60
2022-10-22T03:16:49.453Z,17.30
2022-10-22T03:19:17.837Z,17.70
2022-10-22T03:21:59.396Z,16.10
2022-10-22T03:24:35.906Z,18.20
2022-10-22T03:27:04.301Z,18.40
2022-10-22T03:29:36.167Z,17.50
2022-10-22T03:32:04.561Z,15.60
2022-10-22T03:34:32.825Z,15.80
2022-10-22T03:37:02.085Z,16.40
2022-10-22T03:39:32.299Z,16.60
2022-10-22T03:42:01.087Z,14.30
2022-10-22T03:44:30.642Z,16.10
2022-10-22T03:47:01.741Z,16.20
2022-10-22T03:49:31.087Z,15.10
2022-10-22T03:52:05.095Z,18.20
2022-10-22T03:54:33.417Z,17.60
2022-10-22T03:57:01.902Z,18.70
2022-10-22T03:59:37.289Z,15.90
2022-10-22T04:02:06.123Z,18.10
2022-10-22T04:04:34.510Z,17.40
2022-10-22T04:07:03.413Z,18.40
2022-10-22T04:09:33.053Z,16.10
2022-10-22T04:12:01.698Z,15.00
2022-10-22T04:14:29.966Z,16.40
2022-10-22T04:16:58.213Z,16.20
2022-10-22T04:19:26.599Z,15.20
2022-10-22T04:21:54.907Z,19.90
2022-10-22T04:24:23.114Z,21.40
2022-10-22T04:26:53.689Z,16.10
2022-10-22T04:29:21.953Z,18.80
2022-10-22T04:31:50.599Z,19.10
2022-10-22T04:34:18.845Z,17.30
2022-10-22T04:36:47.137Z,19.20
2022-10-22T04:39:15.516Z,16.90
2022-10-22T04:41:43.810Z,17.20
2022-10-22T04:44:15.874Z,18.30
2022-10-22T04:46:46.023Z,19.80
2022-10-22T04:49:14.532Z,19.80
2022-10-22T04:51:42.829Z,16.30
2022-10-22T04:54:11.040Z,17.00
2022-10-22T04:56:39.323Z,17.20
2022-10-22T04:59:09.189Z,18.00
2022-10-22T05:01:43.466Z,21.40
2022-10-22T05:04:17.646Z,18.60
2022-10-22T05:06:46.051Z,24.50
2022-10-22T05:09:17.115Z,17.00
2022-10-22T05:11:48.861Z,17.60
2022-10-22T05:14:20.982Z,19.10
2022-10-22T05:16:50.056Z,17.00
2022-10-22T05:19:21.827Z,15.50
2022-10-22T05:21:51.558Z,16.00
2022-10-22T05:24:20.062Z,19.20
2022-10-22T05:26:57.047Z,17.90
2022-10-22T05:29:26.345Z,17.70
2022-10-22T05:31:55.167Z,21.20
2022-10-22T05:34:23.522Z,21.10
2022-10-22T05:36:51.792Z,16.90
2022-10-22T05:39:20.084Z,15.50
2022-10-22T05:41:48.376Z,18.20
2022-10-22T05:44:16.685Z,17.50
2022-10-22T05:46:45.353Z,19.00
2022-10-22T05:49:15.862Z,17.90
2022-10-22T05:51:44.285Z,15.50
2022-10-22T05:54:17.969Z,18.10
2022-10-22T05:56:46.552Z,18.60
2022-10-22T05:59:14.969Z,16.00
2022-10-22T06:01:43.368Z,15.20
2022-10-22T06:04:13.532Z,15.20
2022-10-22T06:06:50.382Z,15.90
2022-10-22T06:09:27.439Z,18.70
2022-10-22T06:11:57.250Z,16.20
2022-10-22T06:14:26.156Z,15.80
2022-10-22T06:16:55.260Z,16.70
2022-10-22T06:19:26.937Z,16.50
2022-10-22T06:21:55.254Z,15.10
2022-10-22T06:24:23.506Z,14.40
2022-10-22T06:26:52.775Z,17.10
2022-10-22T06:29:21.167Z,13.60
2022-10-22T06:31:49.607Z,14.40
2022-10-22T06:34:19.142Z,17.70
2022-10-22T06:36:47.915Z,18.90
2022-10-22T06:39:17.827Z,13.90
2022-10-22T06:41:46.180Z,16.70
2022-10-22T06:44:19.654Z,15.60
2022-10-22T06:46:52.613Z,16.80
2022-10-22T06:49:21.587Z,18.00
2022-10-22T06:51:51.989Z,19.40
2022-10-22T06:54:21.449Z,13.90
2022-10-22T06:56:49.897Z,12.80
2022-10-22T06:59:18.143Z,13.20
2022-10-22T07:01:46.777Z,12.20
2022-10-22T07:04:15.397Z,14.00
2022-10-22T07:06:43.647Z,15.40
2022-10-22T07:09:12.131Z,17.10
2022-10-22T07:11:45.867Z,17.60
2022-10-22T07:14:15.147Z,15.70
2022-10-22T07:16:45.807Z,13.30
2022-10-22T07:19:14.301Z,18.30
2022-10-22T07:21:42.613Z,15.10
2022-10-22T07:24:10.853Z,15.60
2022-10-22T07:26:39.495Z,12.50
2022-10-22T07:29:07.820Z,16.30
2022-10-22T07:31:36.203Z,15.50
2022-10-22T07:34:04.468Z,18.80
2022-10-22T07:36:33.094Z,18.00
2022-10-22T07:39:02.217Z,20.10
2022-10-22T07:41:31.460Z,14.20
2022-10-22T07:44:00.007Z,16.20
2022-10-22T07:46:28.447Z,18.10
2022-10-22T07:48:57.023Z,35.90
2022-10-22T07:51:26.882Z,22.00
2022-10-22T07:53:55.601Z,22.10
2022-10-22T07:56:23.903Z,20.90
2022-10-22T07:58:53.863Z,20.20
2022-10-22T08:01:22.222Z,25.30
2022-10-22T08:03:50.575Z,20.90
2022-10-22T08:06:18.934Z,22.00
2022-10-22T08:08:47.431Z,19.70
2022-10-22T08:11:15.923Z,16.70
2022-10-22T08:16:15.282Z,17.60
2022-10-22T08:18:43.753Z,18.10
2022-10-22T08:21:13.465Z,17.80
2022-10-22T08:23:41.764Z,17.10
2022-10-22T08:26:11.246Z,17.80
2022-10-22T08:28:39.478Z,16.40
2022-10-22T08:31:08.759Z,17.10
2022-10-22T08:33:39.032Z,17.70
2022-10-22T08:36:08.364Z,16.40
2022-10-22T08:38:36.826Z,17.10
2022-10-22T08:41:13.111Z,19.60
2022-10-22T08:44:14.609Z,18.20
2022-10-22T08:46:52.771Z,18.70
2022-10-22T08:49:26.304Z,19.80
2022-10-22T08:51:57.669Z,18.60
2022-10-22T08:54:46.761Z,21.40
2022-10-22T08:57:35.994Z,20.30
2022-10-22T09:00:12.958Z,20.60
2022-10-22T09:03:32.887Z,17.30
2022-10-22T09:06:22.919Z,23.10
2022-10-22T09:08:56.047Z,22.50
2022-10-22T09:11:25.220Z,24.70
2022-10-22T09:13:55.274Z,23.50
2022-10-22T09:17:11.069Z,22.60
2022-10-22T09:20:09.531Z,17.80
2022-10-22T09:22:58.953Z,25.50
2022-10-22T09:25:29.513Z,21.90
2022-10-22T09:28:00.495Z,22.10
2022-10-22T09:30:31.881Z,23.20
2022-10-22T09:33:14.427Z,22.60
2022-10-22T09:35:52.213Z,29.40
2022-10-22T09:38:33.009Z,21.50
2022-10-22T09:41:04.067Z,24.90
2022-10-22T09:43:33.840Z,25.40
2022-10-22T09:46:05.023Z,27.20
2022-10-22T09:48:39.347Z,26.90
2022-10-22T09:51:21.925Z,29.10
2022-10-22T09:54:18.124Z,24.30
2022-10-22T09:57:03.223Z,24.70
2022-10-22T09:59:37.028Z,22.80
2022-10-22T10:02:26.622Z,26.20
2022-10-22T10:05:03.609Z,21.40
2022-10-22T10:07:34.242Z,21.30
2022-10-22T10:13:08.563Z,22.00
2022-10-22T10:16:06.247Z,20.20
2022-10-22T10:18:52.174Z,25.10
2022-10-22T10:21:48.337Z,18.90
2022-10-22T10:24:34.153Z,24.60
2022-10-22T10:27:09.934Z,18.10
2022-10-22T10:29:47.330Z,20.40
2022-10-22T10:32:40.646Z,19.80
2022-10-22T10:35:28.636Z,20.00
2022-10-22T10:38:06.115Z,18.30
2022-10-22T10:40:40.497Z,24.60
2022-10-22T10:43:30.193Z,19.60
2022-10-22T10:49:01.254Z,18.00
2022-10-22T10:52:10.649Z,23.30
2022-10-22T10:54:51.569Z,20.70
2022-10-22T10:57:47.045Z,21.70
2022-10-22T11:00:19.850Z,17.70
2022-10-22T11:03:02.990Z,23.90
2022-10-22T11:05:44.353Z,21.50
2022-10-22T11:08:19.217Z,23.50
2022-10-22T11:10:52.774Z,22.60
2022-10-22T11:13:43.382Z,20.00
2022-10-22T11:16:28.989Z,23.90
2022-10-22T11:19:04.483Z,22.70
2022-10-22T11:21:50.999Z,21.10
2022-10-22T11:24:28.016Z,20.50
2022-10-22T11:27:21.313Z,20.00
2022-10-22T11:29:57.796Z,14.50
2022-10-22T11:32:27.811Z,17.50
2022-10-22T11:35:07.134Z,15.60
2022-10-22T11:37:39.212Z,15.20
2022-10-22T11:40:20.240Z,18.10
2022-10-22T11:45:23.787Z,18.00
2022-10-22T11:47:56.865Z,16.20
2022-10-22T11:50:43.528Z,16.20
2022-10-22T11:53:14.710Z,15.10
2022-10-22T11:55:46.594Z,16.10
2022-10-22T11:58:45.152Z,22.50
2022-10-22T12:01:13.409Z,17.00
2022-10-22T12:03:52.151Z,20.90
2022-10-22T12:06:28.953Z,21.30
2022-10-22T12:09:01.897Z,18.50
2022-10-22T12:11:38.353Z,17.40
2022-10-22T12:14:47.813Z,19.10
2022-10-22T12:17:17.994Z,16.10
2022-10-22T12:20:11.665Z,15.70
2022-10-22T12:22:40.852Z,20.70
2022-10-22T12:25:23.030Z,22.40
2022-10-22T12:27:55.079Z,18.10
2022-10-22T12:30:41.566Z,18.80
2022-10-22T12:33:20.943Z,16.20
2022-10-22T12:35:53.126Z,17.90
2022-10-22T12:38:25.896Z,19.10
2022-10-22T12:40:56.105Z,17.20
2022-10-22T12:43:27.288Z,20.30
2022-10-22T12:45:57.933Z,16.70
2022-10-22T12:51:02.106Z,18.40
2022-10-22T12:53:35.146Z,14.70
2022-10-22T12:56:12.257Z,17.00
2022-10-22T12:58:46.893Z,18.00
2022-10-22T13:01:17.839Z,17.30
2022-10-22T13:03:52.078Z,17.40
2022-10-22T13:06:20.351Z,15.70
2022-10-22T13:09:01.006Z,18.40
2022-10-22T13:11:38.341Z,16.00
2022-10-22T13:14:37.609Z,18.20
2022-10-22T13:17:08.739Z,15.60
2022-10-22T13:19:44.981Z,16.70
2022-10-22T13:22:56.817Z,23.20
2022-10-22T13:25:30.893Z,16.70
2022-10-22T13:28:21.130Z,22.50
2022-10-22T13:30:59.307Z,19.30
2022-10-22T13:33:34.784Z,19.30
2022-10-22T13:36:03.651Z,26.80
2022-10-22T13:38:32.208Z,22.70
2022-10-22T13:41:00.973Z,22.70
2022-10-22T13:43:29.243Z,36.60
2022-10-22T13:46:01.271Z,29.10
2022-10-22T13:48:30.782Z,28.40
2022-10-22T13:50:59.251Z,23.90
2022-10-22T13:53:29.508Z,30.80
2022-10-22T13:55:58.113Z,22.40
2022-10-22T13:58:26.516Z,20.40
2022-10-22T14:00:58.295Z,18.80
2022-10-22T14:03:33.647Z,19.30
2022-10-22T14:06:02.160Z,20.70
2022-10-22T14:08:30.491Z,21.60
2022-10-22T14:10:58.769Z,22.70
2022-10-22T14:13:27.284Z,24.10
2022-10-22T14:15:55.941Z,20.30
2022-10-22T14:18:31.679Z,21.40
2022-10-22T14:21:05.264Z,21.70
2022-10-22T14:23:36.275Z,21.10
2022-10-22T14:26:04.995Z,25.90
2022-10-22T14:28:41.248Z,19.40
2022-10-22T14:31:15.013Z,18.20
2022-10-22T14:33:43.533Z,21.70
2022-10-22T14:36:14.345Z,22.90
2022-10-22T14:38:45.938Z,23.00
2022-10-22T14:41:20.902Z,22.20
2022-10-22T14:43:50.875Z,26.50
2022-10-22T14:46:19.602Z,19.60
2022-10-22T14:48:48.557Z,32.80
2022-10-22T14:51:19.282Z,21.00
2022-10-22T14:56:21.565Z,21.20
2022-10-22T14:58:50.231Z,18.90
2022-10-22T15:01:18.629Z,19.30
2022-10-22T15:03:47.008Z,21.50
2022-10-22T15:06:15.249Z,23.30
2022-10-22T15:08:45.382Z,22.70
2022-10-22T15:11:13.804Z,23.50
2022-10-22T15:13:42.374Z,24.50
2022-10-22T15:16:11.817Z,23.00
2022-10-22T15:18:40.141Z,25.30
2022-10-22T15:21:15.735Z,26.50
2022-10-22T15:23:44.127Z,27.10
2022-10-22T15:26:13.404Z,29.20
2022-10-22T15:28:42.363Z,23.90
2022-10-22T15:31:14.600Z,23.20
2022-10-22T15:33:44.084Z,25.50
2022-10-22T15:36:17.241Z,22.40
2022-10-22T15:38:46.107Z,25.40
2022-10-22T15:41:14.562Z,24.40
2022-10-22T15:43:42.958Z,21.90
2022-10-22T15:46:19.971Z,17.70
2022-10-22T15:48:48.328Z,21.90
2022-10-22T15:51:19.357Z,24.10
2022-10-22T15:53:58.939Z,25.20
2022-10-22T15:56:29.359Z,24.60
2022-10-22T15:59:05.546Z,25.60
2022-10-22T16:01:35.517Z,24.40
2022-10-22T16:04:04.641Z,19.50
2022-10-22T16:06:37.774Z,19.50
2022-10-22T16:09:10.158Z,24.30
2022-10-22T16:11:39.706Z,18.00
2022-10-22T16:14:09.951Z,20.80
2022-10-22T16:16:42.754Z,19.80
2022-10-22T16:19:12.445Z,21.10
2022-10-22T16:21:40.821Z,22.40
2022-10-22T16:24:09.819Z,20.10
2022-10-22T16:26:38.218Z,18.70
2022-10-22T16:29:08.494Z,19.10
2022-10-22T16:31:36.795Z,19.00
2022-10-22T16:34:05.132Z,18.60
2022-10-22T16:36:33.941Z,18.60
2022-10-22T16:39:02.961Z,20.50
2022-10-22T16:41:37.984Z,19.70
2022-10-22T16:44:08.095Z,20.80
2022-10-22T16:46:40.613Z,21.80
2022-10-22T16:49:09.076Z,23.50
2022-10-22T16:51:37.736Z,22.20
2022-10-22T16:54:09.718Z,20.40
2022-10-22T16:56:42.807Z,27.80
2022-10-22T16:59:11.505Z,24.30
2022-10-22T17:01:41.354Z,29.80
2022-10-22T17:04:10.266Z,24.10
2022-10-22T17:06:39.040Z,23.20
2022-10-22T17:09:07.455Z,25.60
2022-10-22T17:11:39.184Z,23.20
2022-10-22T17:14:10.052Z,27.80
2022-10-22T17:16:38.576Z,27.30
2022-10-22T17:19:07.100Z,25.50
2022-10-22T17:21:35.975Z,25.00
2022-10-22T17:24:04.791Z,28.70
2022-10-22T17:26:34.747Z,25.70
2022-10-22T17:29:06.255Z,26.70
2022-10-22T17:31:37.571Z,29.70
2022-10-22T17:34:11.448Z,31.80
2022-10-22T17:36:40.303Z,28.70
2022-10-22T17:39:09.031Z,26.70
2022-10-22T17:41:37.999Z,30.70
2022-10-22T17:44:09.400Z,31.20
2022-10-22T17:46:39.011Z,33.50
2022-10-22T17:49:15.222Z,30.40
2022-10-22T17:51:45.517Z,29.50
2022-10-22T17:54:15.978Z,31.70
2022-10-22T17:56:44.832Z,31.80
2022-10-22T17:59:16.144Z,34.30
2022-10-22T18:01:47.967Z,31.90
2022-10-22T18:04:20.642Z,38.10
2022-10-22T18:06:49.919Z,28.90
2022-10-22T18:09:19.502Z,31.40
2022-10-22T18:11:50.715Z,31.30
2022-10-22T18:14:21.471Z,27.10
2022-10-22T18:19:23.331Z,28.70
2022-10-22T18:21:52.223Z,30.00
2022-10-22T18:24:21.025Z,29.80
2022-10-22T18:26:49.502Z,39.60
2022-10-22T18:29:20.511Z,37.30
2022-10-22T18:31:49.150Z,32.80
2022-10-22T18:34:20.268Z,29.80
2022-10-22T18:36:51.650Z,37.10
2022-10-22T18:39:20.046Z,33.50
2022-10-22T18:41:49.088Z,33.40
2022-10-22T18:44:18.135Z,34.90
2022-10-22T18:46:46.958Z,33.70
2022-10-22T18:49:18.637Z,39.20
2022-10-22T18:51:52.744Z,34.10
2022-10-22T18:54:23.806Z,32.70
2022-10-22T18:56:55.597Z,26.30
2022-10-22T18:59:27.617Z,27.10
2022-10-22T19:01:59.621Z,30.50
2022-10-22T19:04:33.748Z,28.20
2022-10-22T19:07:02.219Z,30.20
2022-10-22T19:09:30.612Z,34.20
2022-10-22T19:11:59.582Z,33.10
2022-10-22T19:14:28.241Z,30.60
2022-10-22T19:16:56.536Z,33.90
2022-10-22T19:19:24.917Z,38.50
2022-10-22T19:21:53.587Z,37.90
2022-10-22T19:24:21.977Z,33.50
2022-10-22T19:26:51.811Z,35.50
2022-10-22T19:29:21.626Z,36.60
2022-10-22T19:31:51.275Z,39.60
2022-10-22T19:34:20.379Z,33.00
2022-10-22T19:36:51.863Z,35.30
2022-10-22T19:39:20.936Z,34.20
2022-10-22T19:41:49.262Z,29.90
2022-10-22T19:44:17.807Z,29.50
2022-10-22T19:46:46.116Z,33.90
2022-10-22T19:49:17.697Z,38.50
2022-10-22T19:51:48.941Z,31.50
2022-10-22T19:54:18.673Z,29.30
2022-10-22T19:56:47.788Z,35.70
2022-10-22T19:59:17.225Z,37.20
2022-10-22T20:01:45.495Z,33.50
2022-10-22T20:04:16.215Z,32.90
2022-10-22T20:09:13.769Z,38.00
2022-10-22T20:11:42.085Z,38.70
2022-10-22T20:14:10.344Z,34.80
2022-10-22T20:16:38.739Z,34.70
2022-10-22T20:19:08.591Z,39.30
2022-10-22T20:21:37.535Z,35.60
2022-10-22T20:24:06.056Z,37.60
2022-10-22T20:26:34.700Z,32.00
2022-10-22T20:29:03.010Z,29.60
2022-10-22T20:31:33.177Z,34.20
2022-10-22T20:34:02.315Z,27.00
2022-10-22T20:36:31.828Z,32.70
2022-10-22T20:39:03.295Z,28.60
2022-10-22T20:41:31.929Z,25.00
2022-10-22T20:44:00.692Z,26.70
2022-10-22T20:46:32.327Z,25.70
2022-10-22T20:49:10.766Z,22.60
2022-10-22T20:51:39.373Z,24.90
2022-10-22T20:54:08.770Z,31.60
2022-10-22T20:56:39.537Z,24.90
2022-10-22T21:01:46.842Z,26.60
2022-10-22T21:04:16.389Z,29.10
2022-10-22T21:06:44.832Z,24.30
2022-10-22T21:09:15.337Z,23.20
2022-10-22T21:14:15.000Z,23.20
2022-10-22T21:16:45.839Z,25.50
2022-10-22T21:19:14.222Z,25.20
2022-10-22T21:21:42.737Z,24.90
2022-10-22T21:24:11.131Z,26.10
2022-10-22T21:26:41.583Z,22.80
2022-10-22T21:29:11.419Z,26.70
2022-10-22T21:31:40.642Z,25.40
2022-10-22T21:34:09.090Z,25.10
2022-10-22T21:36:37.414Z,27.90
2022-10-22T21:39:06.789Z,32.30
2022-10-22T21:41:37.282Z,30.10
2022-10-22T21:44:06.315Z,36.00
2022-10-22T21:46:34.786Z,30.90
2022-10-22T21:49:04.272Z,33.80
2022-10-22T21:51:35.582Z,32.30
2022-10-22T21:54:04.690Z,27.60
2022-10-22T21:56:35.354Z,35.10
2022-10-22T21:59:05.570Z,29.00
2022-10-22T22:01:34.793Z,28.50
2022-10-22T22:04:03.479Z,30.40
2022-10-22T22:06:33.325Z,31.20
2022-10-22T22:11:32.815Z,27.40
2022-10-22T22:14:01.254Z,26.20
2022-10-22T22:16:31.818Z,25.70
2022-10-22T22:21:32.459Z,26.40
2022-10-22T22:24:00.783Z,26.30
2022-10-22T22:26:30.274Z,26.60
2022-10-22T22:28:59.805Z,23.20
2022-10-22T22:31:31.176Z,21.50
2022-10-22T22:34:08.387Z,22.10
2022-10-22T22:36:39.486Z,23.30
2022-10-22T22:39:11.067Z,23.80
2022-10-22T22:41:40.119Z,22.10
2022-10-22T22:44:08.589Z,21.60
2022-10-22T22:46:36.929Z,21.80
2022-10-22T22:49:05.907Z,19.60
2022-10-22T22:51:34.218Z,18.30
2022-10-22T22:54:02.772Z,16.40
2022-10-22T22:56:32.746Z,13.90
2022-10-22T22:59:01.296Z,16.00
2022-10-22T23:01:31.093Z,21.10
2022-10-22T23:04:02.182Z,15.80
2022-10-22T23:06:33.474Z,13.50
2022-10-22T23:09:02.162Z,13.20
2022-10-22T23:11:30.863Z,15.80
2022-10-22T23:14:01.426Z,13.40
2022-10-22T23:16:32.349Z,15.10
2022-10-22T23:19:01.579Z,13.80
2022-10-22T23:21:33.680Z,12.70
2022-10-22T23:24:06.330Z,12.90
2022-10-22T23:26:37.864Z,11.90
2022-10-22T23:29:13.670Z,13.90
2022-10-22T23:31:43.193Z,13.30
2022-10-22T23:34:16.075Z,14.00
2022-10-22T23:36:44.839Z,13.70
2022-10-22T23:39:16.383Z,15.80
2022-10-22T23:41:45.096Z,13.70
2022-10-22T23:44:14.146Z,12.70
2022-10-22T23:46:42.550Z,7.80
2022-10-22T23:49:11.830Z,11.80
2022-10-22T23:51:40.517Z,8.80
2022-10-22T23:54:13.335Z,10.00
2022-10-22T23:56:42.229Z,10.60
2022-10-22T23:59:11.286Z,13.30
